Time;durP1;ratioP1;P1;durP2;ratioP2;P2;SDS_P1;SDS_P2;PMS_P1;PMS_P2;Temp;Humidity;BMP_temperature;BMP_pressure;BME280_temperature;BME280_humidity;BME280_pressure;Samples;Min_cycle;Max_cycle;Signal;HPM_P1;HPM_P2
2022/03/28 00:01:30;;;;;;;;;;;;;;;;;;2215103;59;1975;-70
2022/03/28 00:04:04;;;;;;;;;;;;;;;;;;2214819;59;2004;-70
2022/03/28 00:06:37;;;;;;;;;;;;;;;;;;2215645;66;1126;-70
2022/03/28 00:09:13;;;;;;;;;;;;;;;;;;2215521;59;1918;-70
2022/03/28 00:11:46;;;;;;;;;;;;;;;;;;2215668;66;2487;-70
2022/03/28 00:14:19;;;;;;;;;;;;;;;;;;2214776;66;1543;-70
2022/03/28 00:16:54;;;;;;;;;;;;;;;;;;2215543;66;1169;-70
2022/03/28 00:19:27;;;;;;;;;;;;;;;;;;2215600;59;1281;-71
2022/03/28 00:22:00;;;;;;;;;;;;;;;;;;2215765;66;1990;-70
2022/03/28 00:24:36;;;;;;;;;;;;;;;;;;2215602;66;1210;-70
2022/03/28 00:27:09;;;;;;;;;;;;;;;;;;2215384;59;1143;-71
2022/03/28 00:29:42;;;;;;;;;;;;;;;;;;2216574;53;3868;-72
2022/03/28 00:32:15;;;;;;;;;;;;;;;;;;2210706;59;1130;-72
2022/03/28 00:34:49;;;;;;;;;;;;;;;;;;2211496;59;1162;-72
2022/03/28 00:37:22;;;;;;;;;;;;;;;;;;2210873;67;1133;-72
2022/03/28 00:39:59;;;;;;;;;;;;;;;;;;2211263;59;1239;-72
2022/03/28 00:42:32;;;;;;;;;;;;;;;;;;2210446;59;1932;-72
2022/03/28 00:45:06;;;;;;;;;;;;;;;;;;2209859;67;1148;-72
2022/03/28 00:47:39;;;;;;;;;;;;;;;;;;2208577;59;1231;-72
2022/03/28 00:50:13;;;;;;;;;;;;;;;;;;2211265;59;1789;-72
2022/03/28 00:52:46;;;;;;;;;;;;;;;;;;2211947;59;1290;-72
2022/03/28 00:55:22;;;;;;;;;;;;;;;;;;2210945;67;1061;-72
2022/03/28 00:57:55;;;;;;;;;;;;;;;;;;2206647;67;1372;-72
2022/03/28 01:00:28;;;;;;;;;;;;;;;;;;2207796;67;1296;-72
2022/03/28 01:03:03;;;;;;;;;;;;;;;;;;2212014;59;2000;-72
2022/03/28 01:05:36;;;;;;;;;;;;;;;;;;2211544;67;1353;-73
2022/03/28 01:08:09;;;;;;;;;;;;;;;;;;2207686;67;2089;-72
2022/03/28 01:10:47;;;;;;;;;;;;;;;;;;2210924;59;1722;-72
2022/03/28 01:13:21;;;;;;;;;;;;;;;;;;2210861;59;1845;-72
2022/03/28 01:15:54;;;;;;;;;;;;;;;;;;2211739;59;1235;-73
2022/03/28 01:18:25;;;;;;;;;;;;;;;;;;2211801;67;1100;-72
2022/03/28 01:21:01;;;;;;;;;;;;;;;;;;2210448;59;1631;-72
2022/03/28 01:23:36;;;;;;;;;;;;;;;;;;2210816;67;1933;-72
2022/03/28 01:26:09;;;;;;;;;;;;;;;;;;2212573;67;1192;-72
2022/03/28 01:28:42;;;;;;;;;;;;;;;;;;2211944;67;1279;-72
2022/03/28 01:31:15;;;;;;;;;;;;;;;;;;2211789;59;1617;-72
2022/03/28 01:33:49;;;;;;;;;;;;;;;;;;2211079;59;1720;-73
2022/03/28 01:36:26;;;;;;;;;;;;;;;;;;2207661;67;1240;-72
2022/03/28 01:38:59;;;;;;;;;;;;;;;;;;2212275;67;1175;-72
2022/03/28 01:41:32;;;;;;;;;;;;;;;;;;2211530;59;1697;-72
2022/03/28 01:44:05;;;;;;;;;;;;;;;;;;2212747;67;1933;-72
2022/03/28 01:46:44;;;;;;;;;;;;;;;;;;2211217;67;1314;-73
2022/03/28 01:49:18;;;;;;;;;;;;;;;;;;2212605;59;1672;-72
2022/03/28 01:51:54;;;;;;;;;;;;;;;;;;2210463;59;2293;-72
2022/03/28 01:54:27;;;;;;;;;;;;;;;;;;2211735;59;1068;-72
2022/03/28 01:57:00;;;;;;;;;;;;;;;;;;2211388;67;1159;-72
2022/03/28 01:59:33;;;;;;;;;;;;;;;;;;2208015;59;1284;-72
2022/03/28 02:02:07;;;;;;;;;;;;;;;;;;2210821;59;1983;-72
2022/03/28 02:04:40;;;;;;;;;;;;;;;;;;2211609;59;1848;-72
2022/03/28 02:07:16;;;;;;;;;;;;;;;;;;2208560;67;1175;-72
2022/03/28 02:09:49;;;;;;;;;;;;;;;;;;2211910;59;1629;-72
2022/03/28 02:12:22;;;;;;;;;;;;;;;;;;2210977;59;1841;-72
2022/03/28 02:14:55;;;;;;;;;;;;;;;;;;2212415;59;1263;-72
2022/03/28 02:17:30;;;;;;;;;;;;;;;;;;2212398;67;1255;-72
2022/03/28 02:20:05;;;;;;;;;;;;;;;;;;2212316;67;1114;-72
2022/03/28 02:22:42;;;;;;;;;;;;;;;;;;2211932;67;2008;-72
2022/03/28 02:25:17;;;;;;;;;;;;;;;;;;2212099;67;1060;-72
2022/03/28 02:27:50;;;;;;;;;;;;;;;;;;2212827;67;1338;-72
2022/03/28 02:30:24;;;;;;;;;;;;;;;;;;2212719;59;1886;-72
2022/03/28 02:32:57;;;;;;;;;;;;;;;;;;2211598;67;1219;-72
2022/03/28 02:35:30;;;;;;;;;;;;;;;;;;2212041;67;1112;-72
2022/03/28 02:38:07;;;;;;;;;;;;;;;;;;2212207;67;1104;-72
2022/03/28 02:40:40;;;;;;;;;;;;;;;;;;2208444;67;1491;-72
2022/03/28 02:43:13;;;;;;;;;;;;;;;;;;2211871;67;1941;-72
2022/03/28 02:45:46;;;;;;;;;;;;;;;;;;2212291;59;1401;-72
2022/03/28 02:48:19;;;;;;;;;;;;;;;;;;2212076;67;1104;-72
2022/03/28 02:50:53;;;;;;;;;;;;;;;;;;2211650;59;1878;-72
2022/03/28 02:53:29;;;;;;;;;;;;;;;;;;2211621;67;1104;-72
2022/03/28 02:56:02;;;;;;;;;;;;;;;;;;2211763;59;1781;-72
2022/03/28 02:58:35;;;;;;;;;;;;;;;;;;2208017;67;1202;-72
2022/03/28 03:01:09;;;;;;;;;;;;;;;;;;2207595;59;1649;-72
2022/03/28 03:03:42;;;;;;;;;;;;;;;;;;2211949;59;1969;-72
2022/03/28 03:06:15;;;;;;;;;;;;;;;;;;2211806;67;1351;-72
2022/03/28 03:08:51;;;;;;;;;;;;;;;;;;2208248;67;1365;-73
2022/03/28 03:11:25;;;;;;;;;;;;;;;;;;2211467;59;1866;-72
2022/03/28 03:13:59;;;;;;;;;;;;;;;;;;2212318;59;2384;-72
2022/03/28 03:16:32;;;;;;;;;;;;;;;;;;2211955;67;1113;-72
2022/03/28 03:19:05;;;;;;;;;;;;;;;;;;2211388;67;1253;-72
2022/03/28 03:21:39;;;;;;;;;;;;;;;;;;2212453;67;1101;-72
2022/03/28 03:24:15;;;;;;;;;;;;;;;;;;2211509;59;1932;-71
2022/03/28 03:26:48;;;;;;;;;;;;;;;;;;2208188;67;2067;-72
2022/03/28 03:29:21;;;;;;;;;;;;;;;;;;2211389;59;1845;-72
2022/03/28 03:31:55;;;;;;;;;;;;;;;;;;2212362;67;1152;-72
2022/03/28 03:34:28;;;;;;;;;;;;;;;;;;2212105;67;1062;-72
2022/03/28 03:37:01;;;;;;;;;;;;;;;;;;2211721;67;1174;-72
2022/03/28 03:39:37;;;;;;;;;;;;;;;;;;2211435;67;1206;-72
2022/03/28 03:42:11;;;;;;;;;;;;;;;;;;2208006;67;1205;-72
2022/03/28 03:44:44;;;;;;;;;;;;;;;;;;2211810;67;1924;-72
2022/03/28 03:47:17;;;;;;;;;;;;;;;;;;2208113;59;2098;-72
2022/03/28 03:49:51;;;;;;;;;;;;;;;;;;2211800;59;1803;-72
2022/03/28 03:52:24;;;;;;;;;;;;;;;;;;2211758;59;1201;-72
2022/03/28 03:55:00;;;;;;;;;;;;;;;;;;2211886;67;1290;-72
2022/03/28 03:57:33;;;;;;;;;;;;;;;;;;2212480;67;1246;-72
2022/03/28 04:00:08;;;;;;;;;;;;;;;;;;2211123;67;1285;-72
2022/03/28 04:02:42;;;;;;;;;;;;;;;;;;2211692;67;1925;-72
2022/03/28 04:05:15;;;;;;;;;;;;;;;;;;2211703;59;2012;-71
2022/03/28 04:07:48;;;;;;;;;;;;;;;;;;2211738;67;1318;-72
2022/03/28 04:10:25;;;;;;;;;;;;;;;;;;2211624;59;1646;-73
2022/03/28 04:12:58;;;;;;;;;;;;;;;;;;2211881;59;2004;-72
2022/03/28 04:15:31;;;;;;;;;;;;;;;;;;2211398;67;1231;-72
2022/03/28 04:18:04;;;;;;;;;;;;;;;;;;2211716;59;1196;-72
2022/03/28 04:20:38;;;;;;;;;;;;;;;;;;2211619;67;1249;-72
2022/03/28 04:23:11;;;;;;;;;;;;;;;;;;2212094;67;1984;-72
2022/03/28 04:25:47;;;;;;;;;;;;;;;;;;2208507;67;1344;-72
2022/03/28 04:28:21;;;;;;;;;;;;;;;;;;2212001;59;1100;-72
2022/03/28 04:30:54;;;;;;;;;;;;;;;;;;2211332;59;1779;-72
2022/03/28 04:33:27;;;;;;;;;;;;;;;;;;2210917;59;1687;-72
2022/03/28 04:36:00;;;;;;;;;;;;;;;;;;2211905;59;1576;-72
2022/03/28 04:38:34;;;;;;;;;;;;;;;;;;2211314;59;1701;-72
2022/03/28 04:41:10;;;;;;;;;;;;;;;;;;2212554;59;1278;-72
2022/03/28 04:43:43;;;;;;;;;;;;;;;;;;2211704;67;1974;-72
2022/03/28 04:46:16;;;;;;;;;;;;;;;;;;2208411;59;1323;-72
2022/03/28 04:48:49;;;;;;;;;;;;;;;;;;2211622;59;1518;-72
2022/03/28 04:51:23;;;;;;;;;;;;;;;;;;2210308;59;1617;-72
2022/03/28 04:53:56;;;;;;;;;;;;;;;;;;2210789;67;1227;-72
2022/03/28 04:56:34;;;;;;;;;;;;;;;;;;2210470;59;1277;-73
2022/03/28 04:59:07;;;;;;;;;;;;;;;;;;2209637;67;1192;-72
2022/03/28 05:01:40;;;;;;;;;;;;;;;;;;2207702;67;1238;-72
2022/03/28 05:04:13;;;;;;;;;;;;;;;;;;2212131;59;1996;-72
2022/03/28 05:06:46;;;;;;;;;;;;;;;;;;2212195;67;1269;-72
2022/03/28 05:09:20;;;;;;;;;;;;;;;;;;2211348;59;1541;-72
2022/03/28 05:11:57;;;;;;;;;;;;;;;;;;2211617;59;1929;-72
2022/03/28 05:14:30;;;;;;;;;;;;;;;;;;2211639;59;1076;-72
2022/03/28 05:17:05;;;;;;;;;;;;;;;;;;2211282;67;1144;-72
2022/03/28 05:19:38;;;;;;;;;;;;;;;;;;2207034;67;1285;-72
2022/03/28 05:22:11;;;;;;;;;;;;;;;;;;2211699;59;1123;-72
2022/03/28 05:24:45;;;;;;;;;;;;;;;;;;2211216;67;1929;-72
2022/03/28 05:27:21;;;;;;;;;;;;;;;;;;2210762;67;1131;-72
2022/03/28 05:29:54;;;;;;;;;;;;;;;;;;2211220;59;1821;-72
2022/03/28 05:32:27;;;;;;;;;;;;;;;;;;2212009;67;1207;-72
2022/03/28 05:35:03;;;;;;;;;;;;;;;;;;2211529;67;1263;-72
2022/03/28 05:37:37;;;;;;;;;;;;;;;;;;2211565;59;1263;-72
2022/03/28 05:40:11;;;;;;;;;;;;;;;;;;2207687;67;1317;-73
2022/03/28 05:42:47;;;;;;;;;;;;;;;;;;2211431;67;1162;-72
2022/03/28 05:45:20;;;;;;;;;;;;;;;;;;2211098;59;1988;-72
2022/03/28 05:47:54;;;;;;;;;;;;;;;;;;2210803;67;1128;-72
2022/03/28 05:50:27;;;;;;;;;;;;;;;;;;2211149;59;1709;-72
2022/03/28 05:53:00;;;;;;;;;;;;;;;;;;2210586;59;1695;-72
2022/03/28 05:55:34;;;;;;;;;;;;;;;;;;2210301;59;1639;-72
2022/03/28 05:58:11;;;;;;;;;;;;;;;;;;2211623;67;1229;-72
2022/03/28 06:00:44;;;;;;;;;;;;;;;;;;2212020;67;1271;-72
2022/03/28 06:03:18;;;;;;;;;;;;;;;;;;2211392;67;2290;-72
2022/03/28 06:05:51;;;;;;;;;;;;;;;;;;2211202;67;1162;-72
2022/03/28 06:08:25;;;;;;;;;;;;;;;;;;2210644;59;1156;-72
2022/03/28 06:10:58;;;;;;;;;;;;;;;;;;2211338;59;1606;-72
2022/03/28 06:13:35;;;;;;;;;;;;;;;;;;2210130;67;1964;-72
2022/03/28 06:16:08;;;;;;;;;;;;;;;;;;2210412;67;1199;-72
2022/03/28 06:18:41;;;;;;;;;;;;;;;;;;2210657;67;1267;-72
2022/03/28 06:21:14;;;;;;;;;;;;;;;;;;2211612;67;1329;-72
2022/03/28 06:23:48;;;;;;;;;;;;;;;;;;2211499;67;1920;-72
2022/03/28 06:26:21;;;;;;;;;;;;;;;;;;2212376;67;1219;-72
2022/03/28 06:28:57;;;;;;;;;;;;;;;;;;2210711;59;1270;-72
2022/03/28 06:31:31;;;;;;;;;;;;;;;;;;2211194;59;1908;-72
2022/03/28 06:34:04;;;;;;;;;;;;;;;;;;2211179;59;1286;-72
2022/03/28 06:36:38;;;;;;;;;;;;;;;;;;2207727;67;2012;-73
2022/03/28 06:39:11;;;;;;;;;;;;;;;;;;2211216;67;1249;-73
2022/03/28 06:41:45;;;;;;;;;;;;;;;;;;2211229;59;1392;-72
2022/03/28 06:44:21;;;;;;;;;;;;;;;;;;2211131;67;1995;-72
2022/03/28 06:46:54;;;;;;;;;;;;;;;;;;2211026;67;1125;-73
2022/03/28 06:49:27;;;;;;;;;;;;;;;;;;2211632;59;1704;-73
2022/03/28 06:52:01;;;;;;;;;;;;;;;;;;2211513;59;1203;-73
2022/03/28 06:54:35;;;;;;;;;;;;;;;;;;2210802;67;1156;-72
2022/03/28 06:57:08;;;;;;;;;;;;;;;;;;2210859;67;1279;-72
2022/03/28 06:59:44;;;;;;;;;;;;;;;;;;2210792;67;1242;-72
2022/03/28 07:02:18;;;;;;;;;;;;;;;;;;2211479;59;1597;-73
2022/03/28 07:04:51;;;;;;;;;;;;;;;;;;2208009;59;2149;-72
2022/03/28 07:07:24;;;;;;;;;;;;;;;;;;2207909;67;1352;-73
2022/03/28 07:09:57;;;;;;;;;;;;;;;;;;2211460;59;1684;-73
2022/03/28 07:12:31;;;;;;;;;;;;;;;;;;2211511;59;1778;-72
2022/03/28 07:15:08;;;;;;;;;;;;;;;;;;2210511;60;1085;-73
2022/03/28 07:17:48;;;;;;;;;;;;;;;;;;2211895;67;1152;-73
2022/03/28 07:20:21;;;;;;;;;;;;;;;;;;2210928;67;1332;-73
2022/03/28 07:22:55;;;;;;;;;;;;;;;;;;2211707;67;1256;-73
2022/03/28 07:25:29;;;;;;;;;;;;;;;;;;2211755;67;1925;-73
2022/03/28 07:28:02;;;;;;;;;;;;;;;;;;2211926;67;1143;-73
2022/03/28 07:30:38;;;;;;;;;;;;;;;;;;2211038;59;1736;-73
2022/03/28 07:33:11;;;;;;;;;;;;;;;;;;2211615;59;1235;-72
2022/03/28 07:35:45;;;;;;;;;;;;;;;;;;2211827;67;1239;-73
2022/03/28 07:38:19;;;;;;;;;;;;;;;;;;2211861;59;1692;-73
2022/03/28 07:40:52;;;;;;;;;;;;;;;;;;2211493;59;1539;-73
2022/03/28 07:43:25;;;;;;;;;;;;;;;;;;2212135;59;1216;-73
2022/03/28 07:46:01;;;;;;;;;;;;;;;;;;2212253;67;1936;-72
2022/03/28 07:48:34;;;;;;;;;;;;;;;;;;2212381;67;1245;-74
2022/03/28 07:51:07;;;;;;;;;;;;;;;;;;2211778;59;1811;-73
2022/03/28 07:53:40;;;;;;;;;;;;;;;;;;2212359;60;1101;-73
2022/03/28 07:56:14;;;;;;;;;;;;;;;;;;2212182;67;1102;-73
2022/03/28 07:58:47;;;;;;;;;;;;;;;;;;2212061;59;1807;-73
2022/03/28 08:01:23;;;;;;;;;;;;;;;;;;2212566;59;1323;-73
2022/03/28 08:03:56;;;;;;;;;;;;;;;;;;2212223;59;1943;-73
2022/03/28 08:06:30;;;;;;;;;;;;;;;;;;2211381;60;1151;-73
2022/03/28 08:09:04;;;;;;;;;;;;;;;;;;2212120;59;1226;-73
2022/03/28 08:11:37;;;;;;;;;;;;;;;;;;2211404;59;1959;-73
2022/03/28 08:14:10;;;;;;;;;;;;;;;;;;2211528;59;1108;-73
2022/03/28 08:16:47;;;;;;;;;;;;;;;;;;2211733;67;1188;-73
2022/03/28 08:19:20;;;;;;;;;;;;;;;;;;2211978;67;1302;-73
2022/03/28 08:21:53;;;;;;;;;;;;;;;;;;2208713;67;1183;-73
2022/03/28 08:24:26;;;;;;;;;;;;;;;;;;2212197;67;1945;-74
2022/03/28 08:27:00;;;;;;;;;;;;;;;;;;2212355;67;1184;-73
2022/03/28 08:29:34;;;;;;;;;;;;;;;;;;2212132;59;1896;-75
2022/03/28 08:32:10;;;;;;;;;;;;;;;;;;2212606;67;1378;-73
2022/03/28 08:34:46;;;;;;;;;;;;;;;;;;2212146;67;1156;-73
2022/03/28 08:37:21;;;;;;;;;;;;;;;;;;2212651;59;1342;-73
2022/03/28 08:39:55;;;;;;;;;;;;;;;;;;2212113;59;1593;-73
2022/03/28 08:42:28;;;;;;;;;;;;;;;;;;2211898;67;1249;-73
2022/03/28 08:45:02;;;;;;;;;;;;;;;;;;2212620;67;1938;-73
2022/03/28 08:47:42;;;;;;;;;;;;;;;;;;2212119;59;1605;-73
2022/03/28 08:50:15;;;;;;;;;;;;;;;;;;2211111;59;1792;-72
2022/03/28 08:52:48;;;;;;;;;;;;;;;;;;2211852;67;1262;-73
2022/03/28 08:55:22;;;;;;;;;;;;;;;;;;2212789;59;1149;-73
2022/03/28 08:57:55;;;;;;;;;;;;;;;;;;2210977;59;1573;-73
2022/03/28 09:00:29;;;;;;;;;;;;;;;;;;2211609;67;1239;-74
2022/03/28 09:03:05;;;;;;;;;;;;;;;;;;2212056;59;1520;-73
2022/03/28 09:05:39;;;;;;;;;;;;;;;;;;2211400;67;1963;-73
2022/03/28 09:08:12;;;;;;;;;;;;;;;;;;2212165;67;1276;-73
2022/03/28 09:10:49;;;;;;;;;;;;;;;;;;2211229;59;1864;-73
2022/03/28 09:13:22;;;;;;;;;;;;;;;;;;2210771;67;2363;-73
2022/03/28 09:15:57;;;;;;;;;;;;;;;;;;2212169;59;1230;-74
2022/03/28 09:18:34;;;;;;;;;;;;;;;;;;2211088;67;1057;-73
2022/03/28 09:21:08;;;;;;;;;;;;;;;;;;2212320;67;1344;-73
2022/03/28 09:23:44;;;;;;;;;;;;;;;;;;2211229;59;2175;-74
2022/03/28 09:26:20;;;;;;;;;;;;;;;;;;2212481;67;1937;-73
2022/03/28 09:28:54;;;;;;;;;;;;;;;;;;2211403;67;1108;-73
2022/03/28 09:31:30;;;;;;;;;;;;;;;;;;2211800;59;1428;-73
2022/03/28 09:34:10;;;;;;;;;;;;;;;;;;2211963;59;1105;-73
2022/03/28 09:36:51;;;;;;;;;;;;;;;;;;2212123;67;1197;-73
2022/03/28 09:39:25;;;;;;;;;;;;;;;;;;2211237;59;1748;-73
2022/03/28 09:42:02;;;;;;;;;;;;;;;;;;2211969;67;1260;-74
2022/03/28 09:44:36;;;;;;;;;;;;;;;;;;2211997;67;1937;-73
2022/03/28 09:47:11;;;;;;;;;;;;;;;;;;2212135;67;1115;-73
2022/03/28 09:49:49;;;;;;;;;;;;;;;;;;2208623;67;1340;-73
2022/03/28 09:52:25;;;;;;;;;;;;;;;;;;2212065;59;1170;-73
2022/03/28 09:55:00;;;;;;;;;;;;;;;;;;2212130;67;1213;-74
2022/03/28 09:57:33;;;;;;;;;;;;;;;;;;2212015;59;1242;-73
2022/03/28 10:00:12;;;;;;;;;;;;;;;;;;2211135;59;1913;-73
2022/03/28 10:02:45;;;;;;;;;;;;;;;;;;2211143;67;1201;-73
2022/03/28 10:05:21;;;;;;;;;;;;;;;;;;2210343;59;1940;-73
2022/03/28 10:07:57;;;;;;;;;;;;;;;;;;2211928;59;1090;-73
2022/03/28 10:10:30;;;;;;;;;;;;;;;;;;2207359;67;1825;-73
2022/03/28 10:13:03;;;;;;;;;;;;;;;;;;2211827;59;2215;-73
2022/03/28 10:15:37;;;;;;;;;;;;;;;;;;2211020;67;1114;-73
2022/03/28 10:18:10;;;;;;;;;;;;;;;;;;2211534;59;1302;-73
2022/03/28 10:20:53;;;;;;;;;;;;;;;;;;2211365;59;1677;-73
2022/03/28 10:23:29;;;;;;;;;;;;;;;;;;2210064;59;1220;-73
2022/03/28 10:26:02;;;;;;;;;;;;;;;;;;2211765;59;1975;-72
2022/03/28 10:28:35;;;;;;;;;;;;;;;;;;2211396;59;1133;-72
2022/03/28 10:31:15;;;;;;;;;;;;;;;;;;2211929;59;1196;-72
2022/03/28 10:33:49;;;;;;;;;;;;;;;;;;2211483;67;1306;-72
2022/03/28 10:36:32;;;;;;;;;;;;;;;;;;2212751;59;1288;-73
2022/03/28 10:39:38;;;;;;;;;;;;;;;;;;2211445;67;1237;-72
2022/03/28 10:42:16;;;;;;;;;;;;;;;;;;2200102;59;1280;-72
2022/03/28 10:45:00;;;;;;;;;;;;;;;;;;2197030;67;1365;-72
2022/03/28 10:47:44;;;;;;;;;;;;;;;;;;2207152;67;1869;-73
2022/03/28 10:50:20;;;;;;;;;;;;;;;;;;2212039;59;1242;-72
2022/03/28 10:53:16;;;;;;;;;;;;;;;;;;2211640;59;1317;-72
2022/03/28 10:55:51;;;;;;;;;;;;;;;;;;2211091;67;1113;-73
2022/03/28 10:58:25;;;;;;;;;;;;;;;;;;2212281;67;1161;-72
2022/03/28 11:01:17;;;;;;;;;;;;;;;;;;2212574;59;1692;-72
2022/03/28 11:03:53;;;;;;;;;;;;;;;;;;2209205;59;2010;-73
2022/03/28 11:06:45;;;;;;;;;;;;;;;;;;2212229;59;1935;-73
2022/03/28 11:09:34;;;;;;;;;;;;;;;;;;2212182;67;1309;-73
2022/03/28 11:12:17;;;;;;;;;;;;;;;;;;2210924;59;1928;-73
2022/03/28 11:14:57;;;;;;;;;;;;;;;;;;2211465;59;1263;-73
2022/03/28 11:17:31;;;;;;;;;;;;;;;;;;2211043;67;1100;-73
2022/03/28 11:20:12;;;;;;;;;;;;;;;;;;2210569;59;1664;-73
2022/03/28 11:22:47;;;;;;;;;;;;;;;;;;2212478;67;1199;-72
2022/03/28 11:25:37;;;;;;;;;;;;;;;;;;2211754;67;1927;-73
2022/03/28 11:28:15;;;;;;;;;;;;;;;;;;2210310;67;1231;-72
2022/03/28 11:30:55;;;;;;;;;;;;;;;;;;2211503;59;1253;-72
2022/03/28 11:33:36;;;;;;;;;;;;;;;;;;2211960;67;1145;-72
2022/03/28 11:36:10;;;;;;;;;;;;;;;;;;2211426;67;1180;-72
2022/03/28 11:38:44;;;;;;;;;;;;;;;;;;2207898;67;1280;-72
2022/03/28 11:41:19;;;;;;;;;;;;;;;;;;2212643;59;1827;-72
2022/03/28 11:43:55;;;;;;;;;;;;;;;;;;2212328;59;1748;-72
2022/03/28 11:46:30;;;;;;;;;;;;;;;;;;2211486;59;2004;-72
2022/03/28 11:49:05;;;;;;;;;;;;;;;;;;2212915;67;1236;-72
2022/03/28 11:51:39;;;;;;;;;;;;;;;;;;2211120;59;1210;-72
2022/03/28 11:54:14;;;;;;;;;;;;;;;;;;2208444;59;1206;-72
2022/03/28 11:59:43;;;;;;;;;;;;;;;;;;2211465;59;1859;-72
2022/03/28 12:02:16;;;;;;;;;;;;;;;;;;2212472;67;1290;-72
2022/03/28 12:04:50;;;;;;;;;;;;;;;;;;2212411;59;1959;-72
2022/03/28 12:07:23;;;;;;;;;;;;;;;;;;2207927;67;1992;-72
2022/03/28 12:09:56;;;;;;;;;;;;;;;;;;2211654;67;1314;-72
2022/03/28 12:12:29;;;;;;;;;;;;;;;;;;2212069;59;1924;-72
2022/03/28 12:15:05;;;;;;;;;;;;;;;;;;2212313;67;1109;-72
2022/03/28 12:17:38;;;;;;;;;;;;;;;;;;2208051;67;1125;-72
2022/03/28 12:20:13;;;;;;;;;;;;;;;;;;2211125;59;1728;-72
2022/03/28 12:22:47;;;;;;;;;;;;;;;;;;2211480;59;1475;-72
2022/03/28 12:25:28;;;;;;;;;;;;;;;;;;2211660;67;1305;-72
2022/03/28 12:28:02;;;;;;;;;;;;;;;;;;2211416;59;1115;-72
2022/03/28 12:30:39;;;;;;;;;;;;;;;;;;2212751;53;1949;-69
2022/03/28 12:33:14;;;;;;;;;;;;;;;;;;2209052;59;1625;-69
2022/03/28 12:35:48;;;;;;;;;;;;;;;;;;2210209;59;1200;-69
2022/03/28 12:38:22;;;;;;;;;;;;;;;;;;2211697;59;1279;-69
2022/03/28 12:40:56;;;;;;;;;;;;;;;;;;2210395;59;1232;-69
2022/03/28 12:43:30;;;;;;;;;;;;;;;;;;2210122;67;1298;-69
2022/03/28 12:46:07;;;;;;;;;;;;;;;;;;2209998;59;1922;-69
2022/03/28 12:48:43;;;;;;;;;;;;;;;;;;2210502;67;1200;-69
2022/03/28 12:51:24;;;;;;;;;;;;;;;;;;2209222;59;1846;-69
2022/03/28 12:54:04;;;;;;;;;;;;;;;;;;2210933;59;1271;-69
2022/03/28 12:56:47;;;;;;;;;;;;;;;;;;2211184;67;1141;-69
2022/03/28 12:59:21;;;;;;;;;;;;;;;;;;2210996;67;1224;-69
2022/03/28 13:02:08;;;;;;;;;;;;;;;;;;2206619;67;1243;-69
2022/03/28 13:04:44;;;;;;;;;;;;;;;;;;2209641;59;1919;-69
2022/03/28 13:07:20;;;;;;;;;;;;;;;;;;2210963;59;1973;-68
2022/03/28 13:09:57;;;;;;;;;;;;;;;;;;2206764;59;1740;-69
2022/03/28 13:12:38;;;;;;;;;;;;;;;;;;2209903;67;1875;-69
2022/03/28 13:15:17;;;;;;;;;;;;;;;;;;2209452;67;1263;-69
2022/03/28 13:18:04;;;;;;;;;;;;;;;;;;2206147;67;1130;-69
2022/03/28 13:20:38;;;;;;;;;;;;;;;;;;2209865;67;1183;-69
2022/03/28 13:23:22;;;;;;;;;;;;;;;;;;2209979;59;1191;-69
2022/03/28 13:25:56;;;;;;;;;;;;;;;;;;2210491;59;1980;-69
2022/03/28 13:28:32;;;;;;;;;;;;;;;;;;2210157;67;1369;-69
2022/03/28 13:31:05;;;;;;;;;;;;;;;;;;2210629;59;1907;-69
2022/03/28 13:33:41;;;;;;;;;;;;;;;;;;2211409;59;1220;-69
2022/03/28 13:36:15;;;;;;;;;;;;;;;;;;2211311;67;1196;-69
2022/03/28 13:38:49;;;;;;;;;;;;;;;;;;2210981;59;1240;-69
2022/03/28 13:41:22;;;;;;;;;;;;;;;;;;2210169;59;1268;-69
2022/03/28 13:43:55;;;;;;;;;;;;;;;;;;2210440;59;1913;-69
2022/03/28 13:46:29;;;;;;;;;;;;;;;;;;2210902;67;1923;-69
2022/03/28 13:49:05;;;;;;;;;;;;;;;;;;2210530;67;1062;-69
2022/03/28 13:51:38;;;;;;;;;;;;;;;;;;2209676;59;1719;-69
2022/03/28 13:54:11;;;;;;;;;;;;;;;;;;2210004;67;1109;-69
2022/03/28 13:56:45;;;;;;;;;;;;;;;;;;2210073;59;1183;-69
2022/03/28 13:59:18;;;;;;;;;;;;;;;;;;2210874;67;1283;-69
2022/03/28 14:01:51;;;;;;;;;;;;;;;;;;2210231;67;1250;-69
2022/03/28 14:04:27;;;;;;;;;;;;;;;;;;2211207;67;1231;-69
2022/03/28 14:07:00;;;;;;;;;;;;;;;;;;2209588;59;1927;-69
2022/03/28 14:09:33;;;;;;;;;;;;;;;;;;2209504;60;1077;-69
2022/03/28 14:12:07;;;;;;;;;;;;;;;;;;2210657;59;2048;-69
2022/03/28 14:14:40;;;;;;;;;;;;;;;;;;2210845;59;1684;-69
2022/03/28 14:17:13;;;;;;;;;;;;;;;;;;2209102;67;1215;-69
2022/03/28 14:19:50;;;;;;;;;;;;;;;;;;2210208;59;1272;-69
2022/03/28 14:22:23;;;;;;;;;;;;;;;;;;2211218;67;1201;-69
2022/03/28 14:24:56;;;;;;;;;;;;;;;;;;2209767;67;1221;-69
2022/03/28 14:27:29;;;;;;;;;;;;;;;;;;2211637;67;1943;-69
2022/03/28 14:30:02;;;;;;;;;;;;;;;;;;2210650;59;2087;-69
2022/03/28 14:32:35;;;;;;;;;;;;;;;;;;2209377;67;1212;-69
2022/03/28 14:35:12;;;;;;;;;;;;;;;;;;2210077;67;1215;-69
2022/03/28 14:37:45;;;;;;;;;;;;;;;;;;2210676;59;1171;-69
2022/03/28 14:40:18;;;;;;;;;;;;;;;;;;2211009;67;1232;-69
2022/03/28 14:42:51;;;;;;;;;;;;;;;;;;2210495;67;1129;-69
2022/03/28 14:45:25;;;;;;;;;;;;;;;;;;2211201;67;1113;-68
2022/03/28 14:47:58;;;;;;;;;;;;;;;;;;2210379;59;1937;-68
2022/03/28 14:50:34;;;;;;;;;;;;;;;;;;2210706;59;1756;-69
2022/03/28 14:53:08;;;;;;;;;;;;;;;;;;2210372;67;1288;-68
2022/03/28 14:55:42;;;;;;;;;;;;;;;;;;2211266;67;1269;-69
2022/03/28 14:58:15;;;;;;;;;;;;;;;;;;2211091;67;1212;-69
2022/03/28 15:00:48;;;;;;;;;;;;;;;;;;2206297;67;1298;-68
2022/03/28 15:03:21;;;;;;;;;;;;;;;;;;2211484;59;1994;-68
2022/03/28 15:05:57;;;;;;;;;;;;;;;;;;2210134;59;1321;-68
2022/03/28 15:08:30;;;;;;;;;;;;;;;;;;2211097;67;1940;-69
2022/03/28 15:11:04;;;;;;;;;;;;;;;;;;2210095;59;1634;-69
2022/03/28 15:13:37;;;;;;;;;;;;;;;;;;2209225;67;2164;-69
2022/03/28 15:16:10;;;;;;;;;;;;;;;;;;2211225;59;1251;-68
2022/03/28 15:18:44;;;;;;;;;;;;;;;;;;2210419;59;1080;-68
2022/03/28 15:21:20;;;;;;;;;;;;;;;;;;2210674;67;1201;-69
2022/03/28 15:23:53;;;;;;;;;;;;;;;;;;2210435;67;1148;-69
2022/03/28 15:26:26;;;;;;;;;;;;;;;;;;2210429;67;1294;-69
2022/03/28 15:28:59;;;;;;;;;;;;;;;;;;2210542;67;1240;-68
2022/03/28 15:31:33;;;;;;;;;;;;;;;;;;2210095;59;1550;-68
2022/03/28 15:34:08;;;;;;;;;;;;;;;;;;2209808;67;1081;-68
2022/03/28 15:36:45;;;;;;;;;;;;;;;;;;2211124;67;1193;-68
2022/03/28 15:39:19;;;;;;;;;;;;;;;;;;2209759;67;1220;-69
2022/03/28 15:41:53;;;;;;;;;;;;;;;;;;2210611;67;1252;-68
2022/03/28 15:44:27;;;;;;;;;;;;;;;;;;2210576;59;1083;-69
2022/03/28 15:47:00;;;;;;;;;;;;;;;;;;2211256;67;1933;-69
2022/03/28 15:49:35;;;;;;;;;;;;;;;;;;2210540;67;1252;-68
2022/03/28 15:52:11;;;;;;;;;;;;;;;;;;2209068;59;1748;-69
2022/03/28 15:54:44;;;;;;;;;;;;;;;;;;2210160;59;1234;-69
2022/03/28 15:57:18;;;;;;;;;;;;;;;;;;2210570;59;1161;-68
2022/03/28 15:59:51;;;;;;;;;;;;;;;;;;2210350;67;1192;-69
2022/03/28 16:02:24;;;;;;;;;;;;;;;;;;2211089;67;1350;-69
2022/03/28 16:04:57;;;;;;;;;;;;;;;;;;2210413;59;1939;-68
2022/03/28 16:07:33;;;;;;;;;;;;;;;;;;2210745;59;1928;-69
2022/03/28 16:10:07;;;;;;;;;;;;;;;;;;2210074;59;1801;-68
2022/03/28 16:12:40;;;;;;;;;;;;;;;;;;2210478;59;1896;-69
2022/03/28 16:15:13;;;;;;;;;;;;;;;;;;2210070;67;1211;-69
2022/03/28 16:17:46;;;;;;;;;;;;;;;;;;2211120;59;1102;-68
2022/03/28 16:20:20;;;;;;;;;;;;;;;;;;2210215;59;2291;-68
2022/03/28 16:22:56;;;;;;;;;;;;;;;;;;2209638;59;1162;-68
2022/03/28 16:25:29;;;;;;;;;;;;;;;;;;2209807;67;1702;-68
2022/03/28 16:28:03;;;;;;;;;;;;;;;;;;2209915;59;1980;-69
2022/03/28 16:30:37;;;;;;;;;;;;;;;;;;2211483;59;1740;-69
2022/03/28 16:33:10;;;;;;;;;;;;;;;;;;2210122;67;1180;-68
2022/03/28 16:35:45;;;;;;;;;;;;;;;;;;2207533;67;1815;-69
2022/03/28 16:38:22;;;;;;;;;;;;;;;;;;2210324;67;1220;-68
2022/03/28 16:40:55;;;;;;;;;;;;;;;;;;2209632;59;1264;-69
2022/03/28 16:43:29;;;;;;;;;;;;;;;;;;2210240;67;1088;-68
2022/03/28 16:46:02;;;;;;;;;;;;;;;;;;2211898;67;1092;-69
2022/03/28 16:48:36;;;;;;;;;;;;;;;;;;2210760;67;1944;-68
2022/03/28 16:51:09;;;;;;;;;;;;;;;;;;2210374;59;1939;-68
2022/03/28 16:53:45;;;;;;;;;;;;;;;;;;2206107;67;1254;-68
2022/03/28 16:56:21;;;;;;;;;;;;;;;;;;2210242;67;1227;-68
2022/03/28 16:58:54;;;;;;;;;;;;;;;;;;2209909;59;1322;-68
2022/03/28 17:01:27;;;;;;;;;;;;;;;;;;2209835;59;1393;-68
2022/03/28 17:04:00;;;;;;;;;;;;;;;;;;2210175;59;2058;-69
2022/03/28 17:06:34;;;;;;;;;;;;;;;;;;2209304;59;1245;-69
2022/03/28 17:09:09;;;;;;;;;;;;;;;;;;2210674;59;1977;-69
2022/03/28 17:11:43;;;;;;;;;;;;;;;;;;2209071;59;1803;-68
2022/03/28 17:14:16;;;;;;;;;;;;;;;;;;2209778;59;1633;-69
2022/03/28 17:16:49;;;;;;;;;;;;;;;;;;2210548;62;1131;-69
2022/03/28 17:19:22;;;;;;;;;;;;;;;;;;2210391;67;1207;-68
2022/03/28 17:21:59;;;;;;;;;;;;;;;;;;2206794;67;1254;-68
2022/03/28 17:24:35;;;;;;;;;;;;;;;;;;2210307;67;1205;-68
2022/03/28 17:27:08;;;;;;;;;;;;;;;;;;2209892;67;1169;-68
2022/03/28 17:29:41;;;;;;;;;;;;;;;;;;2210432;67;1233;-68
2022/03/28 17:32:14;;;;;;;;;;;;;;;;;;2209409;59;1654;-68
2022/03/28 17:34:47;;;;;;;;;;;;;;;;;;2205818;67;1764;-70
2022/03/28 17:37:20;;;;;;;;;;;;;;;;;;2210985;67;1127;-68
2022/03/28 17:40:00;;;;;;;;;;;;;;;;;;2210143;67;1264;-69
2022/03/28 17:42:34;;;;;;;;;;;;;;;;;;2210518;67;1269;-68
2022/03/28 17:45:08;;;;;;;;;;;;;;;;;;2209911;59;1234;-69
2022/03/28 17:47:41;;;;;;;;;;;;;;;;;;2206300;67;1932;-68
2022/03/28 17:50:14;;;;;;;;;;;;;;;;;;2209100;59;1906;-68
2022/03/28 17:52:47;;;;;;;;;;;;;;;;;;2208996;67;1270;-68
2022/03/28 17:55:23;;;;;;;;;;;;;;;;;;2206702;59;2038;-68
2022/03/28 17:57:57;;;;;;;;;;;;;;;;;;2209545;59;1560;-68